Time;durP1;ratioP1;P1;durP2;ratioP2;P2;SDS_P1;SDS_P2;PMS_P1;PMS_P2;Temp;Humidity;BMP_temperature;BMP_pressure;BME280_temperature;BME280_humidity;BME280_pressure;Samples;Min_cycle;Max_cycle;Signal;HPM_P1;HPM_P2
2023/04/02 00:00:09;;;;;;;8.98;4.13;;;6.00;99.90;;;;;;4991157;28;20085;-73
2023/04/02 00:02:50;;;;;;;7.32;3.50;;;6.00;99.90;;;;;;4988329;28;20084;-74
2023/04/02 00:05:17;;;;;;;12.27;3.80;;;6.00;99.90;;;;;;4987539;28;20043;-72
2023/04/02 00:07:47;;;;;;;10.27;3.65;;;6.00;99.90;;;;;;4988836;28;20046;-72
2023/04/02 00:10:45;;;;;;;8.07;4.47;;;5.80;99.90;;;;;;4988503;28;20054;-73
2023/04/02 00:13:11;;;;;;;8.93;4.85;;;5.90;99.90;;;;;;4988286;28;20054;-72
2023/04/02 00:15:42;;;;;;;8.98;3.55;;;5.90;99.90;;;;;;4988746;28;20122;-74
2023/04/02 00:18:13;;;;;;;9.93;4.40;;;5.90;99.90;;;;;;4986556;28;20043;-73
2023/04/02 00:20:42;;;;;;;8.45;3.65;;;5.90;99.90;;;;;;4987953;28;20054;-74
2023/04/02 00:23:13;;;;;;;6.70;3.60;;;5.80;99.90;;;;;;4991282;28;20129;-73
2023/04/02 00:25:45;;;;;;;11.32;3.85;;;5.80;99.90;;;;;;4988170;28;20045;-74
2023/04/02 00:28:22;;;;;;;8.55;4.18;;;5.70;99.90;;;;;;4987801;28;20526;-71
2023/04/02 00:30:49;;;;;;;7.30;3.95;;;5.70;99.90;;;;;;4984002;28;20050;-72
2023/04/02 00:33:18;;;;;;;9.32;4.30;;;5.70;99.90;;;;;;5006855;28;20049;-71
2023/04/02 00:35:44;;;;;;;8.07;3.88;;;5.70;99.90;;;;;;5006556;28;20128;-72
2023/04/02 00:38:23;;;;;;;11.52;4.00;;;5.60;99.90;;;;;;5007929;28;20149;-71
2023/04/02 00:40:51;;;;;;;8.18;3.25;;;5.60;99.90;;;;;;4989132;28;20107;-72
2023/04/02 00:43:17;;;;;;;6.45;3.50;;;5.50;99.90;;;;;;4998426;28;20110;-71
2023/04/02 00:45:49;;;;;;;;;;;5.50;99.90;;;;;;5008684;28;20042;-72
2023/04/02 00:48:34;;;;;;;7.72;3.45;;;5.40;99.90;;;;;;5006019;28;19922;-71
2023/04/02 00:51:21;;;;;;;5.65;3.20;;;5.40;99.90;;;;;;5007469;28;20114;-72
2023/04/02 00:53:49;;;;;;;6.13;2.90;;;5.40;99.90;;;;;;4969557;28;20126;-72
2023/04/02 00:56:41;;;;;;;7.55;3.13;;;5.40;99.90;;;;;;4968662;28;20132;-72
2023/04/02 00:59:41;;;;;;;7.10;3.47;;;5.30;99.90;;;;;;4977213;28;20499;-72
2023/04/02 01:02:13;;;;;;;6.97;3.67;;;5.20;99.90;;;;;;4987582;28;20081;-72
2023/04/02 01:04:40;;;;;;;6.75;3.53;;;5.20;99.90;;;;;;4987285;28;20606;-72
2023/04/02 01:07:09;;;;;;;9.00;3.50;;;5.30;99.90;;;;;;4998684;28;20046;-72
2023/04/02 01:09:46;;;;;;;6.95;3.65;;;5.30;99.90;;;;;;5007811;28;20056;-71
2023/04/02 01:12:18;;;;;;;8.10;3.50;;;5.30;99.90;;;;;;5007382;28;20054;-71
2023/04/02 01:15:09;;;;;;;8.35;3.40;;;5.30;99.90;;;;;;5007772;28;20046;-72
2023/04/02 01:17:47;;;;;;;8.57;3.90;;;5.20;99.90;;;;;;5000805;28;20532;-72
2023/04/02 01:21:07;;;;;;;5.72;3.33;;;5.10;99.90;;;;;;4986779;28;20090;-71
2023/04/02 01:23:54;;;;;;;8.63;3.60;;;5.10;99.90;;;;;;5032861;28;20049;-72
2023/04/02 01:26:29;;;;;;;9.63;3.00;;;5.10;99.90;;;;;;4968437;28;20111;-71
2023/04/02 01:29:04;;;;;;;8.18;2.95;;;5.00;99.90;;;;;;4981233;28;20046;-73
2023/04/02 01:31:32;;;;;;;6.78;3.03;;;5.00;99.90;;;;;;5004169;28;20038;-73
2023/04/02 01:33:58;;;;;;;8.65;2.50;;;5.00;99.90;;;;;;4988190;28;20054;-74
2023/04/02 01:36:42;;;;;;;;;;;5.00;99.90;;;;;;4995379;28;20042;-74
2023/04/02 01:39:44;;;;;;;5.70;2.55;;;4.80;99.90;;;;;;5010378;28;19932;-73
2023/04/02 01:42:20;;;;;;;9.10;3.05;;;4.80;99.90;;;;;;5011137;28;20062;-74
2023/04/02 01:44:48;;;;;;;6.22;2.95;;;4.80;99.90;;;;;;5010969;28;20060;-73
2023/04/02 01:47:17;;;;;;;7.20;2.50;;;4.80;99.90;;;;;;5009506;28;20119;-74
2023/04/02 01:49:44;;;;;;;4.95;2.28;;;4.70;99.90;;;;;;4975092;28;20061;-73
2023/04/02 01:52:18;;;;;;;5.18;2.00;;;4.60;99.90;;;;;;5009537;28;20106;-74
2023/04/02 01:54:46;;;;;;;6.65;2.28;;;4.60;99.90;;;;;;5018672;28;20054;-72
2023/04/02 01:57:12;;;;;;;12.10;2.00;;;4.50;99.90;;;;;;5010749;28;20054;-74
2023/04/02 01:59:39;;;;;;;5.32;2.63;;;4.50;99.90;;;;;;5010268;28;20065;-72
2023/04/02 02:02:08;;;;;;;6.90;2.65;;;4.50;99.90;;;;;;4993065;28;20046;-72
2023/04/02 02:04:34;;;;;;;4.45;2.10;;;4.50;99.90;;;;;;4989659;28;20038;-72
2023/04/02 02:07:01;;;;;;;4.43;1.95;;;4.40;99.90;;;;;;4991176;28;20096;-72
2023/04/02 02:09:31;;;;;;;2.92;1.98;;;4.30;99.90;;;;;;5005592;28;20205;-72
2023/04/02 02:11:58;;;;;;;3.30;1.80;;;4.30;99.90;;;;;;5009773;28;20513;-72
2023/04/02 02:14:25;;;;;;;3.17;1.85;;;4.20;99.90;;;;;;5009662;28;20502;-73
2023/04/02 02:16:55;;;;;;;9.98;2.08;;;4.20;99.90;;;;;;5009484;28;20126;-72
2023/04/02 02:19:30;;;;;;;5.93;2.10;;;4.10;99.90;;;;;;5009433;28;20085;-72
2023/04/02 02:22:05;;;;;;;5.13;1.98;;;4.00;99.90;;;;;;5010648;28;20057;-72
2023/04/02 02:24:34;;;;;;;6.00;1.60;;;3.90;99.90;;;;;;4995205;28;20151;-72
2023/04/02 02:27:20;;;;;;;9.18;2.00;;;3.90;99.90;;;;;;4990780;28;20419;-72
2023/04/02 02:30:02;;;;;;;7.95;1.77;;;3.80;99.90;;;;;;4990270;28;20050;-72
2023/04/02 02:32:30;;;;;;;6.13;1.88;;;3.70;99.90;;;;;;4989509;28;20050;-72
2023/04/02 02:35:14;;;;;;;9.68;1.95;;;3.60;99.90;;;;;;4990587;28;20046;-72
2023/04/02 02:37:45;;;;;;;6.95;1.80;;;3.60;99.90;;;;;;4990339;28;20414;-72
2023/04/02 02:40:30;;;;;;;4.60;1.85;;;3.50;99.90;;;;;;5010328;28;20054;-72
2023/04/02 02:43:01;;;;;;;3.53;1.50;;;3.50;99.90;;;;;;4991212;28;20049;-72
2023/04/02 02:45:32;;;;;;;3.55;1.25;;;3.40;99.90;;;;;;4989913;28;20046;-72
2023/04/02 02:47:59;;;;;;;4.13;1.52;;;3.30;99.90;;;;;;4989531;28;20463;-72
2023/04/02 02:50:31;;;;;;;7.97;1.77;;;3.30;99.90;;;;;;4987704;28;20472;-72
2023/04/02 02:52:59;;;;;;;3.50;1.83;;;3.30;99.90;;;;;;4990523;28;20069;-72
2023/04/02 02:55:35;;;;;;;5.35;1.83;;;3.20;99.90;;;;;;4988970;28;20082;-72
2023/04/02 02:58:14;;;;;;;6.20;2.03;;;3.20;99.90;;;;;;4989740;28;20681;-72
2023/04/02 03:00:42;;;;;;;3.35;1.90;;;3.10;99.90;;;;;;4989571;28;20877;-72
2023/04/02 03:03:16;;;;;;;9.57;2.80;;;3.10;99.90;;;;;;4993789;28;20053;-72
2023/04/02 03:05:43;;;;;;;3.97;1.63;;;3.10;99.90;;;;;;4989049;28;20125;-72
2023/04/02 03:08:42;;;;;;;6.55;1.70;;;3.40;99.90;;;;;;4990148;28;20057;-71
2023/04/02 03:11:13;;;;;;;6.15;2.28;;;3.00;99.90;;;;;;4990464;28;20058;-72
2023/04/02 03:13:45;;;;;;;7.45;1.92;;;2.90;99.90;;;;;;4988154;28;20112;-72
2023/04/02 03:16:17;;;;;;;4.50;2.05;;;3.00;99.90;;;;;;4989949;28;20093;-72
2023/04/02 03:19:09;;;;;;;5.07;2.30;;;2.90;99.90;;;;;;4979544;28;20082;-72
2023/04/02 03:21:38;;;;;;;9.00;2.30;;;2.90;99.90;;;;;;4982672;28;20061;-72
2023/04/02 03:24:17;;;;;;;4.97;2.05;;;2.80;99.90;;;;;;5007383;28;20050;-72
2023/04/02 03:26:48;;;;;;;6.88;2.00;;;2.80;99.90;;;;;;5008855;28;20081;-72
2023/04/02 03:29:30;;;;;;;6.43;2.42;;;2.80;99.90;;;;;;4997352;28;20060;-72
2023/04/02 03:31:58;;;;;;;4.40;2.10;;;2.70;99.90;;;;;;4989297;28;20486;-72
2023/04/02 03:34:32;;;;;;;3.83;2.10;;;2.70;99.90;;;;;;4988726;28;20049;-72
2023/04/02 03:37:04;;;;;;;5.97;2.35;;;2.70;99.90;;;;;;4989861;28;20047;-72
2023/04/02 03:39:41;;;;;;;6.43;2.38;;;2.80;99.90;;;;;;4995994;28;20095;-72
2023/04/02 03:42:19;;;;;;;7.72;2.65;;;2.80;99.90;;;;;;5004069;28;20103;-72
2023/04/02 03:44:54;;;;;;;6.97;2.88;;;2.70;99.90;;;;;;5003825;28;20125;-72
2023/04/02 03:47:34;;;;;;;6.10;2.28;;;2.70;99.90;;;;;;4988803;28;20043;-72
2023/04/02 03:50:06;;;;;;;5.22;2.33;;;2.60;99.90;;;;;;4988636;28;20484;-72
2023/04/02 03:52:35;;;;;;;8.10;2.58;;;2.60;99.90;;;;;;4989144;28;20054;-72
2023/04/02 03:55:09;;;;;;;7.55;2.92;;;2.70;99.90;;;;;;4989644;28;20042;-72
2023/04/02 03:58:02;;;;;;;11.50;3.20;;;2.60;99.90;;;;;;4993681;28;20096;-72
2023/04/02 04:00:35;;;;;;;6.25;2.60;;;3.00;99.90;;;;;;5001296;28;20051;-72
2023/04/02 04:03:30;;;;;;;5.05;2.65;;;2.90;99.90;;;;;;4988673;28;20061;-72
2023/04/02 04:06:22;;;;;;;7.55;2.80;;;2.70;99.90;;;;;;5005368;28;20659;-72
2023/04/02 04:08:50;;;;;;;5.85;3.03;;;2.70;99.90;;;;;;5000735;28;20095;-72
2023/04/02 04:11:20;;;;;;;6.78;2.97;;;2.70;99.90;;;;;;4989390;28;20057;-72
2023/04/02 04:14:17;;;;;;;8.88;3.25;;;2.80;99.90;;;;;;4988978;28;20495;-72
2023/04/02 04:17:03;;;;;;;5.93;3.20;;;2.70;99.90;;;;;;5001842;28;20157;-72
2023/04/02 04:19:44;;;;;;;5.00;2.58;;;2.70;99.90;;;;;;4987814;28;20079;-72
2023/04/02 04:22:16;;;;;;;5.25;2.92;;;2.70;99.90;;;;;;4991321;28;20137;-72
2023/04/02 04:24:44;;;;;;;8.07;2.63;;;2.70;99.90;;;;;;4991484;28;20054;-72
2023/04/02 04:27:32;;;;;;;6.80;2.65;;;2.70;99.90;;;;;;4989075;28;20070;-71
2023/04/02 04:30:23;;;;;;;5.38;2.47;;;2.70;99.90;;;;;;4988979;28;20046;-72
2023/04/02 04:33:21;;;;;;;4.13;2.40;;;2.80;99.90;;;;;;4994554;28;20046;-72
2023/04/02 04:36:02;;;;;;;23.65;3.15;;;2.80;99.90;;;;;;5005806;28;20049;-72
2023/04/02 04:38:39;;;;;;;11.65;3.15;;;2.90;99.90;;;;;;4989498;28;20392;-72
2023/04/02 04:41:13;;;;;;;7.70;3.08;;;2.80;99.90;;;;;;4989110;28;20133;-71
2023/04/02 04:44:16;;;;;;;6.95;3.63;;;2.70;99.90;;;;;;4984159;28;20487;-72
2023/04/02 04:47:12;;;;;;;7.45;3.90;;;2.60;99.90;;;;;;4985687;28;20066;-72
2023/04/02 04:49:48;;;;;;;9.63;3.42;;;2.50;99.90;;;;;;4991322;28;20061;-72
2023/04/02 04:52:27;;;;;;;5.40;3.07;;;2.50;99.90;;;;;;5007278;28;20049;-72
2023/04/02 04:54:53;;;;;;;6.75;3.17;;;2.50;99.90;;;;;;4990359;28;20572;-71
2023/04/02 04:57:37;;;;;;;6.60;3.28;;;2.50;99.90;;;;;;4988473;28;20102;-72
2023/04/02 05:00:44;;;;;;;6.60;3.15;;;2.60;99.90;;;;;;4988526;28;20050;-71
2023/04/02 05:03:19;;;;;;;11.77;4.25;;;2.60;99.90;;;;;;5017160;28;20099;-72
2023/04/02 05:05:45;;;;;;;8.17;3.50;;;2.60;99.90;;;;;;4997935;28;20122;-72
2023/04/02 05:08:18;;;;;;;8.60;3.53;;;2.60;99.90;;;;;;4994338;28;20133;-72
2023/04/02 05:10:49;;;;;;;8.82;3.78;;;2.60;99.90;;;;;;4988465;28;20125;-71
2023/04/02 05:13:40;;;;;;;10.32;4.15;;;2.60;99.90;;;;;;4992574;28;20050;-72
2023/04/02 05:16:05;;;;;;;5.85;2.90;;;2.50;99.90;;;;;;5011436;28;20050;-72
2023/04/02 05:18:51;;;;;;;7.50;3.72;;;2.70;99.90;;;;;;4992272;28;20050;-72
2023/04/02 05:21:32;;;;;;;8.57;3.30;;;2.50;99.90;;;;;;4989805;28;20112;-72
2023/04/02 05:24:33;;;;;;;5.38;3.00;;;2.60;99.90;;;;;;5002081;28;20050;-72
2023/04/02 05:27:10;;;;;;;8.35;3.60;;;2.50;99.90;;;;;;5011321;28;20125;-71
2023/04/02 05:29:40;;;;;;;5.78;3.25;;;2.50;99.90;;;;;;4989776;28;20414;-71
2023/04/02 05:32:22;;;;;;;9.80;3.20;;;2.60;99.90;;;;;;5008516;28;20415;-72
2023/04/02 05:34:53;;;;;;;5.25;2.53;;;2.40;99.90;;;;;;5009233;28;20891;-72
2023/04/02 05:37:22;;;;;;;6.32;2.70;;;2.40;99.90;;;;;;5011460;28;20060;-72
2023/04/02 05:39:55;;;;;;;8.57;3.00;;;2.50;99.90;;;;;;4993715;28;20052;-72
2023/04/02 05:42:28;;;;;;;6.38;3.58;;;2.40;99.90;;;;;;4991492;28;20050;-71
2023/04/02 05:45:13;;;;;;;8.93;3.17;;;2.50;99.90;;;;;;4990722;28;20093;-71
2023/04/02 05:47:42;;;;;;;5.05;2.58;;;2.50;99.90;;;;;;4990539;28;20388;-72
2023/04/02 05:50:08;;;;;;;6.22;2.65;;;2.60;99.90;;;;;;4987434;28;20494;-72
2023/04/02 05:52:45;;;;;;;5.38;2.13;;;2.70;99.90;;;;;;5000574;28;20498;-72
2023/04/02 05:55:11;;;;;;;8.00;2.17;;;2.60;99.90;;;;;;5011027;28;20054;-71
2023/04/02 05:57:42;;;;;;;;;;;2.90;99.90;;;;;;4996798;28;20059;-72
2023/04/02 06:00:16;;;;;;;5.60;2.95;;;2.60;99.90;;;;;;4991141;28;19922;-72
2023/04/02 06:02:52;;;;;;;4.70;1.63;;;2.60;99.90;;;;;;4989756;28;20050;-72
2023/04/02 06:05:22;;;;;;;2.63;1.60;;;2.60;99.90;;;;;;4990367;28;20053;-72
2023/04/02 06:08:10;;;;;;;6.28;2.13;;;2.70;99.90;;;;;;4990732;28;20131;-72
2023/04/02 06:10:46;;;;;;;5.28;2.05;;;2.60;99.90;;;;;;4989171;28;20074;-72
2023/04/02 06:13:17;;;;;;;7.38;2.47;;;2.60;99.90;;;;;;4994080;28;20104;-72
2023/04/02 06:15:43;;;;;;;4.88;2.25;;;2.60;99.90;;;;;;5001867;28;20137;-72
2023/04/02 06:18:18;;;;;;;6.22;1.85;;;2.60;99.90;;;;;;5006659;28;20136;-71
2023/04/02 06:20:45;;;;;;;5.50;1.90;;;2.70;99.90;;;;;;4989652;28;20499;-71
2023/04/02 06:23:13;;;;;;;3.65;2.20;;;2.80;99.90;;;;;;4990419;28;20094;-71
2023/04/02 06:25:44;;;;;;;3.92;1.67;;;2.70;99.90;;;;;;4990601;28;20115;-72
2023/04/02 06:28:18;;;;;;;10.13;2.03;;;2.70;99.90;;;;;;4989355;28;20094;-71
2023/04/02 06:30:44;;;;;;;7.63;1.65;;;2.70;99.90;;;;;;4989890;28;20050;-71
2023/04/02 06:33:14;;;;;;;1.85;1.52;;;2.80;99.90;;;;;;4988271;28;20095;-72
2023/04/02 06:35:41;;;;;;;6.65;1.90;;;2.80;99.90;;;;;;4994724;28;20051;-72
2023/04/02 06:38:17;;;;;;;7.63;1.92;;;2.90;99.90;;;;;;5004423;28;20421;-72
2023/04/02 06:40:52;;;;;;;3.58;1.73;;;2.80;99.90;;;;;;4991315;28;20143;-72
2023/04/02 06:43:36;;;;;;;5.88;1.98;;;2.90;99.90;;;;;;4990431;28;20050;-72
2023/04/02 06:46:18;;;;;;;6.63;1.70;;;3.00;99.90;;;;;;4990601;28;20061;-72
2023/04/02 06:48:45;;;;;;;4.50;1.85;;;3.10;99.90;;;;;;4989088;28;20483;-72
2023/04/02 06:51:15;;;;;;;6.63;1.98;;;3.50;99.90;;;;;;4989633;28;20057;-71
2023/04/02 06:53:50;;;;;;;6.10;1.80;;;3.50;99.90;;;;;;4989271;28;20062;-72
2023/04/02 06:56:50;;;;;;;5.10;2.08;;;3.30;99.90;;;;;;4998764;28;20066;-72
2023/04/02 06:59:16;;;;;;;2.80;1.63;;;3.30;99.90;;;;;;5012176;28;20058;-71
2023/04/02 07:01:42;;;;;;;;;;;3.20;99.90;;;;;;4989457;28;20444;-72
2023/04/02 07:04:09;;;;;;;5.10;2.25;;;3.30;99.90;;;;;;4990313;28;19926;-71
2023/04/02 07:06:34;;;;;;;5.70;2.00;;;3.30;99.90;;;;;;5007963;28;20046;-71
2023/04/02 07:09:00;;;;;;;4.72;1.60;;;3.40;99.90;;;;;;5009394;28;20060;-72
2023/04/02 07:11:26;;;;;;;2.97;1.80;;;3.50;99.90;;;;;;5009700;28;20050;-72
2023/04/02 07:13:52;;;;;;;5.90;1.83;;;3.60;99.90;;;;;;5009271;28;20056;-71
2023/04/02 07:16:25;;;;;;;3.33;1.70;;;3.50;99.90;;;;;;5009559;28;20071;-71
2023/04/02 07:18:54;;;;;;;4.03;1.52;;;3.50;99.90;;;;;;4998204;28;20075;-71
2023/04/02 07:21:20;;;;;;;11.57;3.00;;;3.40;99.90;;;;;;4977824;28;20496;-71
2023/04/02 07:23:46;;;;;;;3.13;1.77;;;3.40;99.90;;;;;;4991902;28;20053;-71
2023/04/02 07:26:14;;;;;;;3.40;1.50;;;3.40;99.90;;;;;;5000237;28;20124;-71
2023/04/02 07:28:40;;;;;;;4.35;1.42;;;3.50;99.90;;;;;;5009072;28;20042;-71
2023/04/02 07:31:17;;;;;;;3.30;1.60;;;3.60;99.90;;;;;;5009160;28;20182;-76
2023/04/02 07:33:42;;;;;;;;;;;3.60;99.90;;;;;;5007457;28;20054;-73
2023/04/02 07:36:12;;;;;;;7.13;1.35;;;3.70;99.90;;;;;;4996834;28;19930;-75
2023/04/02 07:38:38;;;;;;;4.93;1.33;;;3.90;99.90;;;;;;4989862;28;20054;-66
2023/04/02 07:41:05;;;;;;;4.00;1.40;;;4.00;99.90;;;;;;4988891;28;20057;-79
2023/04/02 07:43:31;;;;;;;6.70;1.85;;;4.10;99.90;;;;;;4972284;28;20521;-77
2023/04/02 07:45:57;;;;;;;4.03;1.50;;;4.20;99.90;;;;;;4995864;28;20042;-73
2023/04/02 07:48:22;;;;;;;3.08;1.20;;;4.30;99.90;;;;;;4988068;28;20050;-76
2023/04/02 07:50:48;;;;;;;6.95;1.40;;;4.30;99.90;;;;;;4988107;28;20061;-74
2023/04/02 07:53:32;;;;;;;3.17;1.80;;;4.30;99.90;;;;;;5000812;28;20061;-75
2023/04/02 07:56:00;;;;;;;4.22;1.40;;;4.30;99.90;;;;;;5062664;28;20471;-76
2023/04/02 07:58:27;;;;;;;2.78;1.40;;;4.20;99.90;;;;;;4988439;28;20100;-76
2023/04/02 08:00:53;;;;;;;5.55;1.40;;;4.10;99.90;;;;;;4987858;28;20510;-76
2023/04/02 08:03:18;;;;;;;5.85;1.60;;;4.10;99.90;;;;;;4988347;28;20043;-76
2023/04/02 08:05:52;;;;;;;4.20;1.95;;;4.10;99.90;;;;;;4988385;28;20050;-74
2023/04/02 08:08:19;;;;;;;2.10;1.40;;;4.10;99.90;;;;;;4989388;28;20054;-76
2023/04/02 08:10:45;;;;;;;4.45;1.80;;;4.20;99.90;;;;;;4989234;28;20471;-74
2023/04/02 08:13:10;;;;;;;4.03;1.83;;;4.30;99.90;;;;;;4982462;28;20054;-75
2023/04/02 08:15:36;;;;;;;4.45;1.88;;;4.40;99.90;;;;;;4992958;28;20497;-76
2023/04/02 08:18:02;;;;;;;3.90;2.08;;;4.40;99.90;;;;;;5002958;28;20129;-75
2023/04/02 08:20:28;;;;;;;4.38;1.60;;;4.40;99.90;;;;;;4974167;28;20115;-75
2023/04/02 08:22:53;;;;;;;3.88;1.70;;;4.40;99.90;;;;;;4995750;28;20061;-75
2023/04/02 08:25:19;;;;;;;5.88;1.80;;;4.40;99.90;;;;;;4988023;28;20421;-75
2023/04/02 08:27:48;;;;;;;7.10;1.55;;;4.50;99.90;;;;;;5004943;28;20057;-75
2023/04/02 08:30:15;;;;;;;3.17;1.70;;;4.60;99.90;;;;;;4992254;28;20087;-75
2023/04/02 08:32:41;;;;;;;5.60;1.80;;;4.60;99.90;;;;;;4987753;28;20054;-76
2023/04/02 08:35:25;;;;;;;4.28;2.13;;;4.70;99.90;;;;;;4968223;28;20050;-77
2023/04/02 08:37:51;;;;;;;4.78;2.13;;;4.80;99.90;;;;;;4972134;28;20063;-75
2023/04/02 08:40:28;;;;;;;5.28;2.30;;;4.80;99.90;;;;;;5009319;28;20560;-76
2023/04/02 08:43:18;;;;;;;4.45;1.95;;;4.90;99.90;;;;;;5003698;28;20046;-76
2023/04/02 08:45:55;;;;;;;3.30;1.70;;;4.90;99.90;;;;;;4969394;28;20121;-75
2023/04/02 08:48:22;;;;;;;2.80;1.85;;;5.00;99.90;;;;;;4967832;28;20187;-76
2023/04/02 08:50:48;;;;;;;5.85;1.85;;;5.10;99.90;;;;;;4982122;28;20049;-73
2023/04/02 08:53:27;;;;;;;4.40;1.92;;;5.20;99.90;;;;;;5008001;28;20042;-73
2023/04/02 08:56:04;;;;;;;5.50;2.08;;;5.10;99.90;;;;;;5007422;28;20125;-74
2023/04/02 08:58:37;;;;;;;2.95;1.88;;;5.10;99.90;;;;;;5025497;28;20419;-75
2023/04/02 09:01:06;;;;;;;6.55;1.80;;;5.20;99.90;;;;;;5006674;28;20142;-74
2023/04/02 09:03:43;;;;;;;4.28;2.08;;;5.30;99.90;;;;;;5024553;28;20055;-74
2023/04/02 09:06:13;;;;;;;2.10;1.63;;;5.40;99.90;;;;;;5015687;28;20372;-73
2023/04/02 09:08:43;;;;;;;4.22;1.80;;;5.50;99.90;;;;;;5007997;28;20038;-74
2023/04/02 09:11:40;;;;;;;5.53;2.35;;;5.60;99.90;;;;;;5007701;28;20042;-74
2023/04/02 09:14:24;;;;;;;5.78;2.33;;;5.70;99.90;;;;;;5007709;28;20493;-74
2023/04/02 09:16:59;;;;;;;4.50;1.70;;;5.70;99.90;;;;;;5007076;28;20049;-74
2023/04/02 09:19:35;;;;;;;3.28;1.60;;;5.70;99.90;;;;;;5007589;28;20056;-74
2023/04/02 09:22:04;;;;;;;2.30;1.50;;;5.80;99.90;;;;;;5007534;28;20060;-74
2023/04/02 09:24:30;;;;;;;4.97;1.77;;;5.80;99.90;;;;;;5004716;28;20141;-74
2023/04/02 09:26:56;;;;;;;;;;;5.80;99.90;;;;;;5021075;28;20080;-73
2023/04/02 09:29:37;;;;;;;3.60;1.58;;;5.80;99.90;;;;;;5022838;28;19964;-74
2023/04/02 09:32:40;;;;;;;4.10;1.85;;;5.90;99.90;;;;;;5015548;28;20097;-74
2023/04/02 09:35:31;;;;;;;1.50;1.40;;;6.00;99.90;;;;;;5016211;28;20102;-74
2023/04/02 09:38:08;;;;;;;3.22;1.70;;;6.10;99.90;;;;;;5007318;28;20054;-72
2023/04/02 09:40:48;;;;;;;7.50;1.92;;;6.20;99.90;;;;;;5007584;28;20078;-74
2023/04/02 09:43:15;;;;;;;4.18;1.50;;;6.30;99.90;;;;;;5007068;28;20073;-72
2023/04/02 09:45:42;;;;;;;4.28;1.98;;;6.30;99.90;;;;;;5005483;28;20133;-73
2023/04/02 09:48:21;;;;;;;5.10;2.00;;;6.40;99.90;;;;;;5011295;28;20086;-73
2023/04/02 09:50:47;;;;;;;5.57;1.95;;;6.50;99.90;;;;;;5005474;28;20058;-85
2023/04/02 09:53:29;;;;;;;6.70;2.05;;;6.60;99.90;;;;;;5013118;28;20547;-74
2023/04/02 09:56:13;;;;;;;2.22;1.50;;;6.70;99.90;;;;;;5003787;28;20038;-71
2023/04/02 09:58:41;;;;;;;3.50;1.50;;;6.80;99.90;;;;;;5009764;28;20057;-69
2023/04/02 10:01:32;;;;;;;6.47;1.92;;;6.90;99.90;;;;;;5008349;28;20072;-74
2023/04/02 10:03:59;;;;;;;4.82;1.70;;;7.00;99.90;;;;;;5008082;28;20128;-74
2023/04/02 10:06:26;;;;;;;3.53;1.60;;;7.10;99.90;;;;;;5006609;28;20087;-74
2023/04/02 10:08:52;;;;;;;2.60;1.70;;;7.20;99.90;;;;;;5006014;28;20077;-72
2023/04/02 10:11:27;;;;;;;5.88;1.90;;;7.30;99.90;;;;;;5008330;28;20162;-72
2023/04/02 10:14:06;;;;;;;4.43;2.42;;;7.40;99.90;;;;;;5008959;28;20498;-71
2023/04/02 10:16:58;;;;;;;3.70;1.40;;;7.50;99.90;;;;;;5005394;28;20083;-71
2023/04/02 10:19:33;;;;;;;4.72;1.90;;;7.50;99.90;;;;;;5003093;28;20054;-76
2023/04/02 10:22:19;;;;;;;4.90;1.33;;;7.50;99.90;;;;;;4992945;28;20129;-73
2023/04/02 10:24:46;;;;;;;2.25;1.50;;;7.50;99.90;;;;;;4999632;28;20069;-70
2023/04/02 10:27:40;;;;;;;3.72;1.50;;;7.60;99.90;;;;;;5004356;28;20063;-69
2023/04/02 10:30:25;;;;;;;4.35;1.67;;;7.70;99.90;;;;;;4992742;28;20104;-77
2023/04/02 10:33:06;;;;;;;6.00;1.83;;;7.90;99.90;;;;;;5008901;28;20133;-76
2023/04/02 10:35:55;;;;;;;2.92;1.67;;;8.00;99.90;;;;;;5008761;28;20049;-76
2023/04/02 10:38:37;;;;;;;7.07;1.58;;;8.10;99.90;;;;;;5002218;28;20502;-77
2023/04/02 10:41:48;;;;;;;3.97;1.20;;;8.10;99.90;;;;;;4992605;28;20069;-76
2023/04/02 10:44:26;;;;;;;4.63;1.67;;;8.20;99.90;;;;;;5009757;28;20490;-75
2023/04/02 10:47:04;;;;;;;4.90;1.65;;;8.20;99.90;;;;;;5008576;28;20041;-75
2023/04/02 10:49:58;;;;;;;6.03;1.42;;;8.30;99.90;;;;;;5011667;28;20046;-76
2023/04/02 10:52:33;;;;;;;4.70;1.45;;;8.50;99.90;;;;;;5010185;28;20608;-75
2023/04/02 10:55:19;;;;;;;2.67;1.40;;;8.60;99.90;;;;;;5007182;28;20096;-75
2023/04/02 10:57:45;;;;;;;4.45;1.60;;;8.80;99.90;;;;;;5007733;28;20073;-74
2023/04/02 11:00:20;;;;;;;;;;;8.80;99.90;;;;;;5007748;28;20053;-74
2023/04/02 11:02:51;;;;;;;3.60;1.48;;;9.00;99.90;;;;;;5007386;28;19926;-75
2023/04/02 11:05:42;;;;;;;2.03;1.48;;;9.10;99.90;;;;;;5026598;28;20042;-75
2023/04/02 11:08:20;;;;;;;5.03;1.33;;;9.20;99.90;;;;;;5010210;28;20126;-74
2023/04/02 11:10:51;;;;;;;3.50;1.50;;;9.30;99.90;;;;;;5007868;28;20091;-74
2023/04/02 11:13:32;;;;;;;3.80;1.23;;;9.40;99.90;;;;;;5009075;28;20053;-76
2023/04/02 11:15:58;;;;;;;4.05;1.55;;;9.50;99.90;;;;;;5007202;28;20038;-76
2023/04/02 11:18:37;;;;;;;4.07;1.55;;;9.60;99.90;;;;;;5006115;28;20161;-76
2023/04/02 11:21:04;;;;;;;3.30;1.58;;;9.80;99.90;;;;;;5005565;28;20049;-76
2023/04/02 11:23:50;;;;;;;1.70;1.10;;;10.00;99.90;;;;;;5006629;28;20088;-78
2023/04/02 11:26:41;;;;;;;2.03;1.13;;;10.30;99.90;;;;;;5007673;28;20100;-74
2023/04/02 11:29:14;;;;;;;3.97;1.30;;;10.50;99.90;;;;;;5007624;28;20061;-74
2023/04/02 11:31:42;;;;;;;2.33;1.02;;;10.70;99.90;;;;;;5004092;28;20093;-71
2023/04/02 11:34:39;;;;;;;2.75;1.65;;;10.80;99.90;;;;;;5007615;28;20136;-71
2023/04/02 11:37:10;;;;;;;;;;;11.00;99.90;;;;;;5007608;28;20034;-70
2023/04/02 11:40:11;;;;;;;0.98;0.93;;;11.10;99.90;;;;;;5008086;28;19925;-77
2023/04/02 11:42:44;;;;;;;4.47;1.13;;;11.30;99.90;;;;;;5012815;28;20414;-78
2023/04/02 11:45:22;;;;;;;4.00;1.00;;;11.50;99.90;;;;;;5008461;28;20081;-76
2023/04/02 11:48:00;;;;;;;2.83;1.30;;;11.70;99.90;;;;;;5007754;28;20414;-79
2023/04/02 11:50:52;;;;;;;3.60;1.10;;;11.90;99.90;;;;;;5006583;28;20046;-77
2023/04/02 11:53:32;;;;;;;1.55;1.23;;;11.90;99.90;;;;;;4995942;28;20098;-71
2023/04/02 11:56:35;;;;;;;2.55;1.10;;;12.10;99.90;;;;;;5007939;28;20049;-72
2023/04/02 11:59:16;;;;;;;2.30;1.20;;;12.20;98.70;;;;;;5000613;28;20076;-71
2023/04/02 12:02:01;;;;;;;2.63;1.73;;;12.20;99.90;;;;;;5007831;28;20058;-70
2023/04/02 12:05:03;;;;;;;3.33;1.10;;;12.30;98.60;;;;;;5007392;28;20045;-71
2023/04/02 12:07:52;;;;;;;3.05;1.10;;;12.30;99.10;;;;;;5000342;28;20038;-71
2023/04/02 12:10:24;;;;;;;4.72;1.15;;;12.50;99.80;;;;;;5017055;28;20081;-71
2023/04/02 12:12:50;;;;;;;3.97;1.40;;;12.70;95.60;;;;;;5008656;28;20042;-71
2023/04/02 12:15:25;;;;;;;3.05;0.90;;;12.90;95.10;;;;;;4997420;28;20125;-71
2023/04/02 12:17:52;;;;;;;2.90;1.23;;;13.20;92.30;;;;;;5007415;28;20117;-71
2023/04/02 12:20:26;;;;;;;2.00;1.00;;;13.20;89.50;;;;;;5006788;28;20079;-71
2023/04/02 12:22:54;;;;;;;4.60;1.27;;;13.30;90.10;;;;;;5005913;28;20073;-71
2023/04/02 12:25:23;;;;;;;4.93;1.52;;;13.50;89.90;;;;;;4990152;28;20042;-71
2023/04/02 12:28:09;;;;;;;2.08;1.15;;;13.60;89.10;;;;;;5007879;28;20049;-71
2023/04/02 12:30:36;;;;;;;2.00;1.10;;;13.90;92.20;;;;;;5010109;28;20093;-71
2023/04/02 12:33:29;;;;;;;2.50;1.20;;;14.20;91.90;;;;;;5007239;28;20052;-71
2023/04/02 12:35:57;;;;;;;4.03;1.10;;;14.40;88.80;;;;;;5007416;28;20042;-71
2023/04/02 12:38:29;;;;;;;1.75;1.08;;;14.60;87.50;;;;;;5006401;28;20513;-73
2023/04/02 12:41:00;;;;;;;3.50;1.10;;;14.60;85.20;;;;;;5001815;28;20046;-72
2023/04/02 12:43:27;;;;;;;4.93;1.75;;;14.70;83.80;;;;;;5004345;28;20453;-75
2023/04/02 12:45:55;;;;;;;4.03;1.40;;;14.90;87.30;;;;;;4990451;28;20399;-73
2023/04/02 12:48:21;;;;;;;2.97;1.00;;;15.10;88.70;;;;;;5006019;28;20058;-74
2023/04/02 12:50:48;;;;;;;3.47;1.10;;;15.20;86.90;;;;;;5009731;28;20049;-74
2023/04/02 12:53:36;;;;;;;3.85;1.00;;;15.40;87.20;;;;;;5007272;28;20046;-76
2023/04/02 12:56:03;;;;;;;2.58;0.80;;;15.60;82.00;;;;;;5007986;28;20041;-76
2023/04/02 12:58:36;;;;;;;3.15;1.00;;;15.60;85.90;;;;;;5008009;28;20549;-77
2023/04/02 13:01:17;;;;;;;3.80;1.30;;;15.60;81.80;;;;;;5006005;28;20057;-73
2023/04/02 13:03:57;;;;;;;3.25;1.30;;;15.80;85.10;;;;;;5005446;28;20046;-75
2023/04/02 13:06:23;;;;;;;2.75;1.10;;;16.00;85.20;;;;;;5006087;28;20045;-77
2023/04/02 13:08:49;;;;;;;6.60;1.27;;;16.00;88.00;;;;;;5007278;28;20053;-77
2023/04/02 13:11:15;;;;;;;2.38;0.80;;;16.10;84.90;;;;;;5007101;28;20054;-77
2023/04/02 13:13:44;;;;;;;1.67;1.00;;;16.20;84.80;;;;;;5005757;28;20102;-77
2023/04/02 13:16:16;;;;;;;1.00;0.80;;;16.30;84.00;;;;;;5007288;28;20050;-76
2023/04/02 13:18:44;;;;;;;4.15;1.20;;;16.70;83.20;;;;;;5005482;28;20061;-76
2023/04/02 13:21:16;;;;;;;3.22;0.90;;;17.40;79.20;;;;;;5005461;28;20046;-76
2023/04/02 13:23:42;;;;;;;2.00;0.90;;;18.00;76.20;;;;;;5007349;28;20058;-71
2023/04/02 13:26:26;;;;;;;3.22;1.00;;;18.50;68.10;;;;;;5007237;28;20100;-71
2023/04/02 13:29:16;;;;;;;2.40;0.75;;;19.20;69.30;;;;;;5008939;28;20042;-73
2023/04/02 13:31:42;;;;;;;2.17;0.90;;;20.30;63.90;;;;;;5004385;28;20060;-78
2023/04/02 13:34:08;;;;;;;3.70;0.93;;;21.00;65.20;;;;;;5009096;28;20037;-69
2023/04/02 13:36:34;;;;;;;1.95;0.80;;;21.50;60.40;;;;;;5008998;28;20083;-73
2023/04/02 13:39:00;;;;;;;3.05;1.10;;;21.40;60.60;;;;;;5010746;28;20402;-75